sensor_id;sensor_type;location;lat;lon;timestamp;P1;durP1;ratioP1;P2;durP2;ratioP2
41897;SDS011;27576;53.366;-1.498;2024-03-23T00:53:25;13.13;;;2.92;;
41897;SDS011;27576;53.366;-1.498;2024-03-23T00:55:50;15.40;;;3.33;;
41897;SDS011;27576;53.366;-1.498;2024-03-23T00:58:15;17.45;;;3.22;;
41897;SDS011;27576;53.366;-1.498;2024-03-23T01:00:41;13.27;;;3.38;;
41897;SDS011;27576;53.366;-1.498;2024-03-23T01:03:06;12.73;;;3.88;;
41897;SDS011;27576;53.366;-1.498;2024-03-23T01:05:32;17.17;;;4.57;;
41897;SDS011;27576;53.366;-1.498;2024-03-23T01:07:57;25.25;;;4.10;;
41897;SDS011;27576;53.366;-1.498;2024-03-23T01:10:22;14.52;;;3.70;;
41897;SDS011;27576;53.366;-1.498;2024-03-23T01:12:48;18.90;;;4.32;;
41897;SDS011;27576;53.366;-1.498;2024-03-23T01:15:13;20.13;;;4.15;;
41897;SDS011;27576;53.366;-1.498;2024-03-23T01:17:38;16.33;;;3.50;;
41897;SDS011;27576;53.366;-1.498;2024-03-23T01:20:04;14.00;;;3.55;;
41897;SDS011;27576;53.366;-1.498;2024-03-23T01:22:31;18.67;;;4.47;;
41897;SDS011;27576;53.366;-1.498;2024-03-23T01:24:56;19.00;;;4.80;;
41897;SDS011;27576;53.366;-1.498;2024-03-23T01:27:22;18.13;;;4.68;;
41897;SDS011;27576;53.366;-1.498;2024-03-23T01:29:48;16.77;;;4.80;;
41897;SDS011;27576;53.366;-1.498;2024-03-23T01:32:13;21.75;;;4.50;;
41897;SDS011;27576;53.366;-1.498;2024-03-23T01:34:38;23.58;;;4.35;;
41897;SDS011;27576;53.366;-1.498;2024-03-23T01:37:04;15.02;;;3.72;;
41897;SDS011;27576;53.366;-1.498;2024-03-23T01:39:29;26.77;;;4.32;;
41897;SDS011;27576;53.366;-1.498;2024-03-23T01:41:55;16.83;;;4.07;;
41897;SDS011;27576;53.366;-1.498;2024-03-23T01:44:20;20.70;;;3.65;;
41897;SDS011;27576;53.366;-1.498;2024-03-23T01:46:45;23.48;;;4.32;;
41897;SDS011;27576;53.366;-1.498;2024-03-23T01:49:12;21.63;;;4.22;;
41897;SDS011;27576;53.366;-1.498;2024-03-23T01:51:37;14.10;;;3.58;;
41897;SDS011;27576;53.366;-1.498;2024-03-23T01:54:03;18.13;;;4.25;;
41897;SDS011;27576;53.366;-1.498;2024-03-23T01:56:34;15.48;;;3.78;;
41897;SDS011;27576;53.366;-1.498;2024-03-23T01:59:03;19.77;;;3.63;;
41897;SDS011;27576;53.366;-1.498;2024-03-23T02:01:30;20.80;;;4.10;;
41897;SDS011;27576;53.366;-1.498;2024-03-23T02:03:56;16.73;;;3.83;;
41897;SDS011;27576;53.366;-1.498;2024-03-23T02:06:22;17.73;;;3.83;;
41897;SDS011;27576;53.366;-1.498;2024-03-23T02:08:49;13.27;;;3.42;;
41897;SDS011;27576;53.366;-1.498;2024-03-23T02:11:14;17.73;;;3.58;;
41897;SDS011;27576;53.366;-1.498;2024-03-23T02:13:39;12.95;;;3.03;;
41897;SDS011;27576;53.366;-1.498;2024-03-23T02:16:05;17.63;;;4.15;;
41897;SDS011;27576;53.366;-1.498;2024-03-23T02:18:31;18.90;;;3.97;;
41897;SDS011;27576;53.366;-1.498;2024-03-23T02:20:57;17.75;;;3.97;;
41897;SDS011;27576;53.366;-1.498;2024-03-23T02:23:22;21.70;;;4.50;;
41897;SDS011;27576;53.366;-1.498;2024-03-23T02:25:49;17.83;;;3.92;;
41897;SDS011;27576;53.366;-1.498;2024-03-23T02:28:15;14.90;;;4.28;;
41897;SDS011;27576;53.366;-1.498;2024-03-23T02:30:40;20.27;;;4.43;;
41897;SDS011;27576;53.366;-1.498;2024-03-23T02:33:05;17.88;;;4.18;;
41897;SDS011;27576;53.366;-1.498;2024-03-23T02:35:31;20.27;;;4.28;;
41897;SDS011;27576;53.366;-1.498;2024-03-23T02:37:56;16.73;;;3.95;;
41897;SDS011;27576;53.366;-1.498;2024-03-23T02:40:22;12.07;;;3.13;;
41897;SDS011;27576;53.366;-1.498;2024-03-23T02:42:48;14.25;;;3.70;;
41897;SDS011;27576;53.366;-1.498;2024-03-23T02:45:14;14.05;;;4.28;;
41897;SDS011;27576;53.366;-1.498;2024-03-23T02:47:39;19.48;;;4.25;;
41897;SDS011;27576;53.366;-1.498;2024-03-23T02:50:05;15.25;;;3.42;;
41897;SDS011;27576;53.366;-1.498;2024-03-23T02:52:30;16.58;;;4.07;;
41897;SDS011;27576;53.366;-1.498;2024-03-23T02:54:56;16.25;;;3.92;;
41897;SDS011;27576;53.366;-1.498;2024-03-23T02:57:21;17.42;;;3.75;;
41897;SDS011;27576;53.366;-1.498;2024-03-23T02:59:47;17.75;;;3.90;;
41897;SDS011;27576;53.366;-1.498;2024-03-23T03:02:13;19.55;;;3.28;;
41897;SDS011;27576;53.366;-1.498;2024-03-23T03:04:39;17.73;;;3.35;;
41897;SDS011;27576;53.366;-1.498;2024-03-23T03:07:04;14.45;;;3.75;;
41897;SDS011;27576;53.366;-1.498;2024-03-23T03:09:30;12.65;;;3.22;;
41897;SDS011;27576;53.366;-1.498;2024-03-23T03:11:55;17.83;;;3.70;;
41897;SDS011;27576;53.366;-1.498;2024-03-23T03:14:20;14.35;;;3.40;;
41897;SDS011;27576;53.366;-1.498;2024-03-23T03:16:46;17.20;;;4.03;;
41897;SDS011;27576;53.366;-1.498;2024-03-23T03:19:11;20.52;;;4.03;;
41897;SDS011;27576;53.366;-1.498;2024-03-23T03:21:37;17.15;;;3.65;;
41897;SDS011;27576;53.366;-1.498;2024-03-23T03:24:02;11.43;;;3.10;;
41897;SDS011;27576;53.366;-1.498;2024-03-23T03:26:28;17.27;;;3.85;;
41897;SDS011;27576;53.366;-1.498;2024-03-23T03:28:53;16.27;;;3.55;;
41897;SDS011;27576;53.366;-1.498;2024-03-23T03:31:19;14.55;;;3.30;;
41897;SDS011;27576;53.366;-1.498;2024-03-23T03:33:45;17.38;;;3.83;;
41897;SDS011;27576;53.366;-1.498;2024-03-23T03:36:10;13.75;;;3.85;;
41897;SDS011;27576;53.366;-1.498;2024-03-23T03:38:36;15.50;;;4.43;;
41897;SDS011;27576;53.366;-1.498;2024-03-23T03:41:02;12.80;;;3.67;;
41897;SDS011;27576;53.366;-1.498;2024-03-23T03:43:27;20.38;;;3.80;;
41897;SDS011;27576;53.366;-1.498;2024-03-23T03:45:53;12.13;;;3.85;;
41897;SDS011;27576;53.366;-1.498;2024-03-23T03:48:19;17.58;;;3.63;;
41897;SDS011;27576;53.366;-1.498;2024-03-23T03:50:45;14.52;;;3.83;;
41897;SDS011;27576;53.366;-1.498;2024-03-23T03:53:10;25.40;;;4.25;;
41897;SDS011;27576;53.366;-1.498;2024-03-23T03:55:36;16.17;;;3.80;;
41897;SDS011;27576;53.366;-1.498;2024-03-23T03:58:01;21.35;;;4.03;;
41897;SDS011;27576;53.366;-1.498;2024-03-23T04:00:27;21.08;;;3.88;;
41897;SDS011;27576;53.366;-1.498;2024-03-23T04:02:52;18.73;;;3.80;;
41897;SDS011;27576;53.366;-1.498;2024-03-23T04:05:18;23.17;;;5.07;;
41897;SDS011;27576;53.366;-1.498;2024-03-23T04:07:44;13.95;;;3.28;;
41897;SDS011;27576;53.366;-1.498;2024-03-23T04:10:09;18.40;;;4.55;;
41897;SDS011;27576;53.366;-1.498;2024-03-23T04:12:35;20.20;;;3.55;;
41897;SDS011;27576;53.366;-1.498;2024-03-23T04:15:00;15.23;;;3.63;;
41897;SDS011;27576;53.366;-1.498;2024-03-23T04:17:28;14.77;;;3.08;;
41897;SDS011;27576;53.366;-1.498;2024-03-23T04:19:56;16.05;;;3.58;;
41897;SDS011;27576;53.366;-1.498;2024-03-23T04:22:22;16.80;;;4.50;;
41897;SDS011;27576;53.366;-1.498;2024-03-23T04:24:49;15.02;;;3.50;;
41897;SDS011;27576;53.366;-1.498;2024-03-23T04:27:15;18.05;;;3.83;;
41897;SDS011;27576;53.366;-1.498;2024-03-23T04:29:40;20.85;;;4.32;;
41897;SDS011;27576;53.366;-1.498;2024-03-23T04:32:06;13.57;;;3.90;;
41897;SDS011;27576;53.366;-1.498;2024-03-23T04:34:31;15.05;;;3.42;;
41897;SDS011;27576;53.366;-1.498;2024-03-23T04:36:58;15.18;;;3.95;;
41897;SDS011;27576;53.366;-1.498;2024-03-23T04:39:23;18.25;;;4.30;;
41897;SDS011;27576;53.366;-1.498;2024-03-23T04:41:49;18.83;;;3.72;;
41897;SDS011;27576;53.366;-1.498;2024-03-23T04:44:15;16.77;;;4.25;;
41897;SDS011;27576;53.366;-1.498;2024-03-23T04:46:40;17.27;;;4.07;;
41897;SDS011;27576;53.366;-1.498;2024-03-23T04:49:05;13.55;;;3.53;;
41897;SDS011;27576;53.366;-1.498;2024-03-23T04:51:35;14.68;;;3.60;;
41897;SDS011;27576;53.366;-1.498;2024-03-23T04:54:02;12.25;;;3.55;;
41897;SDS011;27576;53.366;-1.498;2024-03-23T04:56:28;10.43;;;3.45;;
41897;SDS011;27576;53.366;-1.498;2024-03-23T04:58:54;13.40;;;3.97;;
41897;SDS011;27576;53.366;-1.498;2024-03-23T05:01:19;16.15;;;3.63;;
41897;SDS011;27576;53.366;-1.498;2024-03-23T05:03:45;17.00;;;3.50;;
41897;SDS011;27576;53.366;-1.498;2024-03-23T05:06:10;13.65;;;2.85;;
41897;SDS011;27576;53.366;-1.498;2024-03-23T05:08:35;13.43;;;3.20;;
41897;SDS011;27576;53.366;-1.498;2024-03-23T05:11:01;18.38;;;3.40;;
41897;SDS011;27576;53.366;-1.498;2024-03-23T05:13:26;13.88;;;3.20;;
41897;SDS011;27576;53.366;-1.498;2024-03-23T05:15:55;19.88;;;4.20;;
41897;SDS011;27576;53.366;-1.498;2024-03-23T05:18:21;15.77;;;4.32;;
41897;SDS011;27576;53.366;-1.498;2024-03-23T05:20:47;14.20;;;3.17;;
41897;SDS011;27576;53.366;-1.498;2024-03-23T05:23:12;18.20;;;4.25;;
41897;SDS011;27576;53.366;-1.498;2024-03-23T05:25:37;17.00;;;3.95;;
41897;SDS011;27576;53.366;-1.498;2024-03-23T05:28:03;10.77;;;2.70;;
41897;SDS011;27576;53.366;-1.498;2024-03-23T05:30:28;19.65;;;4.32;;
41897;SDS011;27576;53.366;-1.498;2024-03-23T05:32:54;8.93;;;3.60;;
41897;SDS011;27576;53.366;-1.498;2024-03-23T05:35:19;12.43;;;3.10;;
41897;SDS011;27576;53.366;-1.498;2024-03-23T05:37:45;12.40;;;2.65;;
41897;SDS011;27576;53.366;-1.498;2024-03-23T05:40:10;14.73;;;3.65;;
41897;SDS011;27576;53.366;-1.498;2024-03-23T05:42:37;19.42;;;3.90;;
41897;SDS011;27576;53.366;-1.498;2024-03-23T05:45:03;13.13;;;3.53;;
41897;SDS011;27576;53.366;-1.498;2024-03-23T05:47:31;19.35;;;4.60;;
41897;SDS011;27576;53.366;-1.498;2024-03-23T05:49:57;16.20;;;3.92;;
41897;SDS011;27576;53.366;-1.498;2024-03-23T05:52:22;19.88;;;4.07;;
41897;SDS011;27576;53.366;-1.498;2024-03-23T05:54:50;13.50;;;3.85;;
41897;SDS011;27576;53.366;-1.498;2024-03-23T05:57:15;13.65;;;3.60;;
41897;SDS011;27576;53.366;-1.498;2024-03-23T05:59:41;16.70;;;3.65;;
41897;SDS011;27576;53.366;-1.498;2024-03-23T06:02:06;14.10;;;3.10;;
41897;SDS011;27576;53.366;-1.498;2024-03-23T06:04:32;15.15;;;3.17;;
41897;SDS011;27576;53.366;-1.498;2024-03-23T06:06:57;10.55;;;2.95;;
41897;SDS011;27576;53.366;-1.498;2024-03-23T06:09:22;14.45;;;2.65;;
41897;SDS011;27576;53.366;-1.498;2024-03-23T06:11:48;16.75;;;3.13;;
41897;SDS011;27576;53.366;-1.498;2024-03-23T06:14:14;12.32;;;3.13;;
41897;SDS011;27576;53.366;-1.498;2024-03-23T06:16:39;13.80;;;3.45;;
41897;SDS011;27576;53.366;-1.498;2024-03-23T06:19:04;16.40;;;3.40;;
41897;SDS011;27576;53.366;-1.498;2024-03-23T06:21:31;15.98;;;3.15;;
41897;SDS011;27576;53.366;-1.498;2024-03-23T06:23:57;15.65;;;3.53;;
41897;SDS011;27576;53.366;-1.498;2024-03-23T06:26:23;20.20;;;3.55;;
41897;SDS011;27576;53.366;-1.498;2024-03-23T06:28:48;19.90;;;4.38;;
41897;SDS011;27576;53.366;-1.498;2024-03-23T06:31:14;15.65;;;3.88;;
41897;SDS011;27576;53.366;-1.498;2024-03-23T06:33:40;18.77;;;3.65;;
41897;SDS011;27576;53.366;-1.498;2024-03-23T06:36:08;15.27;;;3.17;;
41897;SDS011;27576;53.366;-1.498;2024-03-23T06:38:35;18.58;;;3.20;;
41897;SDS011;27576;53.366;-1.498;2024-03-23T06:41:04;11.07;;;3.05;;
41897;SDS011;27576;53.366;-1.498;2024-03-23T06:43:32;16.00;;;4.03;;
41897;SDS011;27576;53.366;-1.498;2024-03-23T06:45:57;17.50;;;3.45;;
41897;SDS011;27576;53.366;-1.498;2024-03-23T06:48:23;17.08;;;3.78;;
41897;SDS011;27576;53.366;-1.498;2024-03-23T06:50:48;18.45;;;2.90;;
41897;SDS011;27576;53.366;-1.498;2024-03-23T06:53:14;8.77;;;2.83;;
41897;SDS011;27576;53.366;-1.498;2024-03-23T06:55:40;16.85;;;3.75;;
41897;SDS011;27576;53.366;-1.498;2024-03-23T06:58:05;16.02;;;4.25;;
41897;SDS011;27576;53.366;-1.498;2024-03-23T07:00:31;23.48;;;3.85;;
41897;SDS011;27576;53.366;-1.498;2024-03-23T07:02:57;16.60;;;3.40;;
41897;SDS011;27576;53.366;-1.498;2024-03-23T07:05:23;16.52;;;3.58;;
41897;SDS011;27576;53.366;-1.498;2024-03-23T07:07:48;14.18;;;3.45;;
41897;SDS011;27576;53.366;-1.498;2024-03-23T07:10:14;20.38;;;5.95;;
41897;SDS011;27576;53.366;-1.498;2024-03-23T07:12:39;18.77;;;5.90;;
41897;SDS011;27576;53.366;-1.498;2024-03-23T07:15:05;16.40;;;4.80;;
41897;SDS011;27576;53.366;-1.498;2024-03-23T07:17:30;15.30;;;4.00;;
41897;SDS011;27576;53.366;-1.498;2024-03-23T07:19:57;11.80;;;2.88;;
41897;SDS011;27576;53.366;-1.498;2024-03-23T07:22:23;10.20;;;2.60;;
41897;SDS011;27576;53.366;-1.498;2024-03-23T07:24:49;15.70;;;3.33;;
41897;SDS011;27576;53.366;-1.498;2024-03-23T07:27:14;11.10;;;2.40;;
41897;SDS011;27576;53.366;-1.498;2024-03-23T07:29:40;15.82;;;3.78;;
41897;SDS011;27576;53.366;-1.498;2024-03-23T07:32:05;14.18;;;3.05;;
41897;SDS011;27576;53.366;-1.498;2024-03-23T07:34:30;13.45;;;3.05;;
41897;SDS011;27576;53.366;-1.498;2024-03-23T07:36:56;11.93;;;3.30;;
41897;SDS011;27576;53.366;-1.498;2024-03-23T07:39:21;13.80;;;3.30;;
41897;SDS011;27576;53.366;-1.498;2024-03-23T07:41:47;17.73;;;4.03;;
41897;SDS011;27576;53.366;-1.498;2024-03-23T07:44:12;18.95;;;3.95;;
41897;SDS011;27576;53.366;-1.498;2024-03-23T07:46:38;15.70;;;3.38;;
41897;SDS011;27576;53.366;-1.498;2024-03-23T07:49:06;13.77;;;3.63;;
41897;SDS011;27576;53.366;-1.498;2024-03-23T07:51:32;11.55;;;2.72;;
41897;SDS011;27576;53.366;-1.498;2024-03-23T07:53:58;15.43;;;3.53;;
41897;SDS011;27576;53.366;-1.498;2024-03-23T07:56:24;17.88;;;4.00;;
41897;SDS011;27576;53.366;-1.498;2024-03-23T07:58:49;12.00;;;3.28;;
41897;SDS011;27576;53.366;-1.498;2024-03-23T08:01:15;16.38;;;3.72;;
41897;SDS011;27576;53.366;-1.498;2024-03-23T08:03:42;10.93;;;3.45;;
41897;SDS011;27576;53.366;-1.498;2024-03-23T08:06:16;13.25;;;3.55;;
41897;SDS011;27576;53.366;-1.498;2024-03-23T08:08:44;18.63;;;4.20;;
41897;SDS011;27576;53.366;-1.498;2024-03-23T08:11:10;13.43;;;3.20;;
41897;SDS011;27576;53.366;-1.498;2024-03-23T08:13:38;19.30;;;3.60;;
41897;SDS011;27576;53.366;-1.498;2024-03-23T08:16:04;16.63;;;3.50;;
41897;SDS011;27576;53.366;-1.498;2024-03-23T08:18:30;17.75;;;3.60;;
41897;SDS011;27576;53.366;-1.498;2024-03-23T08:21:03;13.98;;;3.88;;
41897;SDS011;27576;53.366;-1.498;2024-03-23T08:23:33;14.65;;;3.22;;
41897;SDS011;27576;53.366;-1.498;2024-03-23T08:26:01;13.18;;;3.50;;
41897;SDS011;27576;53.366;-1.498;2024-03-23T08:28:27;16.23;;;3.00;;
41897;SDS011;27576;53.366;-1.498;2024-03-23T08:30:53;12.02;;;3.13;;
41897;SDS011;27576;53.366;-1.498;2024-03-23T08:33:20;11.38;;;3.30;;
41897;SDS011;27576;53.366;-1.498;2024-03-23T08:35:54;14.23;;;3.60;;
41897;SDS011;27576;53.366;-1.498;2024-03-23T08:38:21;17.00;;;3.25;;
41897;SDS011;27576;53.366;-1.498;2024-03-23T08:40:47;17.20;;;3.92;;
41897;SDS011;27576;53.366;-1.498;2024-03-23T08:43:12;17.95;;;3.83;;
41897;SDS011;27576;53.366;-1.498;2024-03-23T08:45:37;16.02;;;3.92;;
41897;SDS011;27576;53.366;-1.498;2024-03-23T08:48:03;13.63;;;3.40;;
41897;SDS011;27576;53.366;-1.498;2024-03-23T08:50:29;15.10;;;4.05;;
41897;SDS011;27576;53.366;-1.498;2024-03-23T08:52:54;13.02;;;2.60;;
41897;SDS011;27576;53.366;-1.498;2024-03-23T08:55:19;14.10;;;3.45;;
41897;SDS011;27576;53.366;-1.498;2024-03-23T08:57:44;16.95;;;3.88;;
41897;SDS011;27576;53.366;-1.498;2024-03-23T09:00:10;17.02;;;3.63;;
41897;SDS011;27576;53.366;-1.498;2024-03-23T09:02:36;11.57;;;3.03;;
41897;SDS011;27576;53.366;-1.498;2024-03-23T09:05:02;21.48;;;3.28;;
41897;SDS011;27576;53.366;-1.498;2024-03-23T09:07:30;18.40;;;3.15;;
41897;SDS011;27576;53.366;-1.498;2024-03-23T09:09:56;14.45;;;3.45;;
41897;SDS011;27576;53.366;-1.498;2024-03-23T09:12:21;13.65;;;3.00;;
41897;SDS011;27576;53.366;-1.498;2024-03-23T09:14:46;12.57;;;3.05;;
41897;SDS011;27576;53.366;-1.498;2024-03-23T09:17:12;14.82;;;3.08;;
41897;SDS011;27576;53.366;-1.498;2024-03-23T09:19:38;10.98;;;2.60;;
41897;SDS011;27576;53.366;-1.498;2024-03-23T09:22:04;13.07;;;2.95;;
41897;SDS011;27576;53.366;-1.498;2024-03-23T09:24:30;11.90;;;2.80;;
41897;SDS011;27576;53.366;-1.498;2024-03-23T09:26:57;10.98;;;3.42;;
41897;SDS011;27576;53.366;-1.498;2024-03-23T09:29:22;12.13;;;3.05;;
41897;SDS011;27576;53.366;-1.498;2024-03-23T09:31:47;15.50;;;3.38;;
41897;SDS011;27576;53.366;-1.498;2024-03-23T09:34:13;11.10;;;2.78;;
41897;SDS011;27576;53.366;-1.498;2024-03-23T09:36:38;11.50;;;3.10;;
41897;SDS011;27576;53.366;-1.498;2024-03-23T09:39:03;10.57;;;2.50;;
41897;SDS011;27576;53.366;-1.498;2024-03-23T09:41:30;9.10;;;2.85;;
41897;SDS011;27576;53.366;-1.498;2024-03-23T09:43:56;13.23;;;2.92;;
41897;SDS011;27576;53.366;-1.498;2024-03-23T09:46:21;17.17;;;2.80;;
41897;SDS011;27576;53.366;-1.498;2024-03-23T09:48:47;12.98;;;3.25;;
41897;SDS011;27576;53.366;-1.498;2024-03-23T09:51:12;16.80;;;3.38;;
41897;SDS011;27576;53.366;-1.498;2024-03-23T09:53:38;16.00;;;3.03;;
41897;SDS011;27576;53.366;-1.498;2024-03-23T09:56:04;15.52;;;2.55;;
41897;SDS011;27576;53.366;-1.498;2024-03-23T09:58:29;13.27;;;2.97;;
41897;SDS011;27576;53.366;-1.498;2024-03-23T10:00:57;9.50;;;2.97;;
41897;SDS011;27576;53.366;-1.498;2024-03-23T10:03:22;12.60;;;3.10;;
41897;SDS011;27576;53.366;-1.498;2024-03-23T10:05:48;13.68;;;2.70;;
41897;SDS011;27576;53.366;-1.498;2024-03-23T10:08:25;10.55;;;2.95;;
41897;SDS011;27576;53.366;-1.498;2024-03-23T10:10:53;14.25;;;2.78;;
41897;SDS011;27576;53.366;-1.498;2024-03-23T10:13:25;11.07;;;2.50;;
41897;SDS011;27576;53.366;-1.498;2024-03-23T10:15:55;12.77;;;2.92;;
41897;SDS011;27576;53.366;-1.498;2024-03-23T10:18:22;15.80;;;3.40;;
41897;SDS011;27576;53.366;-1.498;2024-03-23T10:20:52;11.23;;;2.38;;
41897;SDS011;27576;53.366;-1.498;2024-03-23T10:23:31;11.75;;;2.80;;
41897;SDS011;27576;53.366;-1.498;2024-03-23T10:28:56;11.52;;;2.67;;
41897;SDS011;27576;53.366;-1.498;2024-03-23T10:31:32;9.45;;;2.47;;
41897;SDS011;27576;53.366;-1.498;2024-03-23T10:33:58;21.90;;;2.63;;
41897;SDS011;27576;53.366;-1.498;2024-03-23T10:36:25;12.80;;;2.85;;
41897;SDS011;27576;53.366;-1.498;2024-03-23T10:38:51;10.18;;;3.00;;
41897;SDS011;27576;53.366;-1.498;2024-03-23T10:41:17;13.57;;;3.20;;
41897;SDS011;27576;53.366;-1.498;2024-03-23T10:43:47;12.98;;;2.38;;
41897;SDS011;27576;53.366;-1.498;2024-03-23T10:46:13;12.07;;;2.38;;
41897;SDS011;27576;53.366;-1.498;2024-03-23T10:48:39;14.43;;;3.13;;
41897;SDS011;27576;53.366;-1.498;2024-03-23T10:51:08;18.40;;;4.05;;
41897;SDS011;27576;53.366;-1.498;2024-03-23T10:53:34;11.48;;;3.10;;
41897;SDS011;27576;53.366;-1.498;2024-03-23T10:56:02;11.05;;;3.03;;
41897;SDS011;27576;53.366;-1.498;2024-03-23T10:58:33;12.15;;;2.40;;
41897;SDS011;27576;53.366;-1.498;2024-03-23T11:01:05;11.80;;;2.60;;
41897;SDS011;27576;53.366;-1.498;2024-03-23T11:05:56;10.10;;;2.20;;
41897;SDS011;27576;53.366;-1.498;2024-03-23T11:08:29;8.75;;;2.05;;
41897;SDS011;27576;53.366;-1.498;2024-03-23T11:11:17;12.57;;;2.30;;
41897;SDS011;27576;53.366;-1.498;2024-03-23T11:13:47;17.30;;;6.28;;
41897;SDS011;27576;53.366;-1.498;2024-03-23T11:21:59;16.80;;;6.13;;
41897;SDS011;27576;53.366;-1.498;2024-03-23T11:24:25;11.15;;;3.60;;
41897;SDS011;27576;53.366;-1.498;2024-03-23T11:26:50;15.30;;;4.15;;
41897;SDS011;27576;53.366;-1.498;2024-03-23T11:29:16;9.40;;;2.92;;
41897;SDS011;27576;53.366;-1.498;2024-03-23T11:31:49;11.35;;;3.28;;
41897;SDS011;27576;53.366;-1.498;2024-03-23T11:34:16;13.48;;;3.80;;
41897;SDS011;27576;53.366;-1.498;2024-03-23T11:36:42;9.50;;;3.30;;
41897;SDS011;27576;53.366;-1.498;2024-03-23T11:39:14;10.80;;;3.08;;
41897;SDS011;27576;53.366;-1.498;2024-03-23T11:41:51;13.98;;;4.35;;
41897;SDS011;27576;53.366;-1.498;2024-03-23T11:44:18;11.85;;;3.42;;
41897;SDS011;27576;53.366;-1.498;2024-03-23T11:46:45;18.35;;;4.78;;
41897;SDS011;27576;53.366;-1.498;2024-03-23T11:49:44;9.73;;;3.13;;
41897;SDS011;27576;53.366;-1.498;2024-03-23T11:52:05;8.57;;;2.53;;
41897;SDS011;27576;53.366;-1.498;2024-03-23T11:54:32;10.65;;;3.47;;
41897;SDS011;27576;53.366;-1.498;2024-03-23T11:57:01;9.30;;;3.40;;
41897;SDS011;27576;53.366;-1.498;2024-03-23T11:59:36;11.52;;;3.80;;
41897;SDS011;27576;53.366;-1.498;2024-03-23T12:02:09;10.25;;;3.15;;
41897;SDS011;27576;53.366;-1.498;2024-03-23T12:04:36;8.75;;;2.65;;
41897;SDS011;27576;53.366;-1.498;2024-03-23T12:07:12;7.70;;;2.63;;
41897;SDS011;27576;53.366;-1.498;2024-03-23T12:09:39;13.77;;;2.50;;
41897;SDS011;27576;53.366;-1.498;2024-03-23T12:12:15;6.45;;;2.13;;
41897;SDS011;27576;53.366;-1.498;2024-03-23T12:14:44;7.05;;;2.33;;
41897;SDS011;27576;53.366;-1.498;2024-03-23T12:17:11;8.77;;;2.58;;
41897;SDS011;27576;53.366;-1.498;2024-03-23T12:19:38;9.27;;;2.45;;
41897;SDS011;27576;53.366;-1.498;2024-03-23T12:22:05;8.85;;;2.22;;
41897;SDS011;27576;53.366;-1.498;2024-03-23T12:24:31;13.55;;;2.53;;
41897;SDS011;27576;53.366;-1.498;2024-03-23T12:27:01;4.88;;;1.80;;
41897;SDS011;27576;53.366;-1.498;2024-03-23T12:29:30;10.65;;;2.10;;
41897;SDS011;27576;53.366;-1.498;2024-03-23T12:31:59;6.60;;;1.92;;
41897;SDS011;27576;53.366;-1.498;2024-03-23T12:34:25;7.60;;;1.90;;
41897;SDS011;27576;53.366;-1.498;2024-03-23T12:36:51;9.93;;;2.20;;
41897;SDS011;27576;53.366;-1.498;2024-03-23T12:39:16;5.65;;;2.03;;
41897;SDS011;27576;53.366;-1.498;2024-03-23T12:41:41;6.13;;;1.92;;
41897;SDS011;27576;53.366;-1.498;2024-03-23T12:44:07;8.93;;;2.17;;
41897;SDS011;27576;53.366;-1.498;2024-03-23T12:46:36;11.70;;;2.58;;
41897;SDS011;27576;53.366;-1.498;2024-03-23T12:49:02;6.18;;;1.90;;
41897;SDS011;27576;53.366;-1.498;2024-03-23T12:51:27;8.32;;;2.15;;
41897;SDS011;27576;53.366;-1.498;2024-03-23T12:53:53;8.38;;;2.13;;
41897;SDS011;27576;53.366;-1.498;2024-03-23T12:56:18;9.45;;;2.35;;
41897;SDS011;27576;53.366;-1.498;2024-03-23T12:58:44;9.93;;;2.20;;
41897;SDS011;27576;53.366;-1.498;2024-03-23T13:01:09;7.18;;;1.75;;
41897;SDS011;27576;53.366;-1.498;2024-03-23T13:03:34;10.18;;;1.85;;
41897;SDS011;27576;53.366;-1.498;2024-03-23T13:06:00;6.22;;;2.40;;
41897;SDS011;27576;53.366;-1.498;2024-03-23T13:08:25;7.40;;;2.30;;
41897;SDS011;27576;53.366;-1.498;2024-03-23T13:10:53;7.70;;;2.15;;
41897;SDS011;27576;53.366;-1.498;2024-03-23T13:13:20;6.72;;;2.17;;
41897;SDS011;27576;53.366;-1.498;2024-03-23T13:15:49;12.90;;;2.40;;
41897;SDS011;27576;53.366;-1.498;2024-03-23T13:18:17;6.85;;;2.28;;
41897;SDS011;27576;53.366;-1.498;2024-03-23T13:20:43;7.88;;;2.60;;
41897;SDS011;27576;53.366;-1.498;2024-03-23T13:23:09;14.45;;;2.67;;
41897;SDS011;27576;53.366;-1.498;2024-03-23T13:25:34;8.63;;;2.15;;
41897;SDS011;27576;53.366;-1.498;2024-03-23T13:28:00;8.02;;;2.10;;
41897;SDS011;27576;53.366;-1.498;2024-03-23T13:30:26;9.70;;;2.17;;
41897;SDS011;27576;53.366;-1.498;2024-03-23T13:32:51;5.25;;;1.63;;
41897;SDS011;27576;53.366;-1.498;2024-03-23T13:35:17;8.82;;;2.42;;
41897;SDS011;27576;53.366;-1.498;2024-03-23T13:37:42;6.57;;;1.77;;
41897;SDS011;27576;53.366;-1.498;2024-03-23T13:40:08;5.95;;;1.73;;
41897;SDS011;27576;53.366;-1.498;2024-03-23T13:42:34;9.20;;;1.80;;
41897;SDS011;27576;53.366;-1.498;2024-03-23T13:44:59;7.88;;;2.17;;
41897;SDS011;27576;53.366;-1.498;2024-03-23T13:47:24;10.82;;;2.38;;
41897;SDS011;27576;53.366;-1.498;2024-03-23T13:49:50;6.30;;;2.60;;
41897;SDS011;27576;53.366;-1.498;2024-03-23T13:52:15;7.20;;;1.92;;
41897;SDS011;27576;53.366;-1.498;2024-03-23T13:54:41;8.32;;;2.30;;
41897;SDS011;27576;53.366;-1.498;2024-03-23T13:57:11;7.45;;;2.00;;
41897;SDS011;27576;53.366;-1.498;2024-03-23T13:59:36;9.52;;;2.28;;
41897;SDS011;27576;53.366;-1.498;2024-03-23T14:02:02;9.15;;;2.08;;
41897;SDS011;27576;53.366;-1.498;2024-03-23T14:04:27;10.93;;;2.53;;
41897;SDS011;27576;53.366;-1.498;2024-03-23T14:06:53;8.25;;;2.40;;
41897;SDS011;27576;53.366;-1.498;2024-03-23T14:09:18;14.23;;;2.97;;
41897;SDS011;27576;53.366;-1.498;2024-03-23T14:11:47;8.07;;;2.60;;
41897;SDS011;27576;53.366;-1.498;2024-03-23T14:14:13;6.18;;;2.03;;
41897;SDS011;27576;53.366;-1.498;2024-03-23T14:16:41;8.52;;;2.20;;
41897;SDS011;27576;53.366;-1.498;2024-03-23T14:19:07;14.18;;;2.97;;
41897;SDS011;27576;53.366;-1.498;2024-03-23T14:21:32;9.60;;;2.53;;
41897;SDS011;27576;53.366;-1.498;2024-03-23T14:23:59;8.63;;;2.70;;
41897;SDS011;27576;53.366;-1.498;2024-03-23T14:26:25;8.82;;;2.20;;
41897;SDS011;27576;53.366;-1.498;2024-03-23T14:28:52;7.68;;;2.30;;
41897;SDS011;27576;53.366;-1.498;2024-03-23T14:31:18;6.85;;;2.42;;
41897;SDS011;27576;53.366;-1.498;2024-03-23T14:33:43;8.63;;;1.90;;
41897;SDS011;27576;53.366;-1.498;2024-03-23T14:36:15;11.25;;;2.30;;
41897;SDS011;27576;53.366;-1.498;2024-03-23T14:38:41;9.88;;;2.67;;
41897;SDS011;27576;53.366;-1.498;2024-03-23T14:41:07;7.97;;;2.05;;
41897;SDS011;27576;53.366;-1.498;2024-03-23T14:43:33;8.88;;;2.28;;
41897;SDS011;27576;53.366;-1.498;2024-03-23T14:46:05;6.90;;;1.83;;
41897;SDS011;27576;53.366;-1.498;2024-03-23T14:48:38;8.15;;;2.08;;
41897;SDS011;27576;53.366;-1.498;2024-03-23T14:51:04;6.15;;;1.80;;
41897;SDS011;27576;53.366;-1.498;2024-03-23T14:53:30;7.18;;;2.03;;
41897;SDS011;27576;53.366;-1.498;2024-03-23T14:55:57;7.07;;;1.88;;
41897;SDS011;27576;53.366;-1.498;2024-03-23T14:58:22;8.48;;;2.20;;
41897;SDS011;27576;53.366;-1.498;2024-03-23T15:00:48;7.85;;;2.75;;
41897;SDS011;27576;53.366;-1.498;2024-03-23T15:03:14;8.23;;;2.20;;
41897;SDS011;27576;53.366;-1.498;2024-03-23T15:05:40;7.82;;;2.10;;
41897;SDS011;27576;53.366;-1.498;2024-03-23T15:08:06;6.53;;;1.95;;
41897;SDS011;27576;53.366;-1.498;2024-03-23T15:10:34;9.95;;;2.47;;
41897;SDS011;27576;53.366;-1.498;2024-03-23T15:13:00;10.60;;;2.22;;
41897;SDS011;27576;53.366;-1.498;2024-03-23T15:15:25;8.57;;;2.85;;
41897;SDS011;27576;53.366;-1.498;2024-03-23T15:17:51;9.95;;;2.92;;
41897;SDS011;27576;53.366;-1.498;2024-03-23T15:20:16;9.77;;;2.70;;
41897;SDS011;27576;53.366;-1.498;2024-03-23T15:22:43;10.07;;;2.00;;